logo
Rechercher aéroport 
image banner adimage banner adimage banner ad
image banner ad

FASP - Singita Sabie Sand

Situé à , South Africa

ICAO - , IATA -

Données fournies par Airmate  

Information générale

Coordonnées: S24°48'10" E31°25'21"
Élévation : 1358 feet MSL.
Variation magnétique : -19° East
Évalué:
Voir évaluations:
[VIEW]
Voir autres Aéroports à Limpopo

Données opérationnelles

Special qualification required
Heure actuelle UTC:
Heure actuelle locale:
METAR: FAKN 220800Z AUTO 25002KT //// // ////// 19/13 Q1030
TAF: TAF FAKN 220600Z 2207/2218 VRB03KT 9999 SCT030 TX22/2213Z TN17/2218Z
Voir NOTAMs / SUP AIP / TFR affectant cet aéroport [VIEW]
Fréquences de communication: [VIEW]

Pistes:

Identifiant RWYQFULongueur (ft)Largeur (ft)SurfaceLDA (ft)
01356°419141ASPH
19176°419141ASPH

Coordonnées de l'aéroport

Adresse: South Africa

Vue satellite de FASP